UKL61G EGBB-ELLX
Flight info
| Callsign | UKL61G |
|---|---|
| Flight time | 1h 2m |
| Altitude | 37000 |
| Route | ADMEX DCT COWLY Q70 BIG UL9 KONAN UL607 REMBA |
| Aircraft | A306/H-SDE3FGHIRWY/LB1 |
Departure
| Time | 2026-05-05 07:33 |
|---|---|
| Airport | Birmingham Airport (EGBB) |
Arrival
| Time | 2026-05-05 08:35 |
|---|---|
| Airport | Luxembourg-Findel International Airport (ELLX) |
| Time | Latitude | Longitude | Altitude | Speed | Heading |
|---|---|---|---|---|---|
| 2026-05-05 07:01 | 52.45423 | -1.74138 | 329 ft | 0 kts | 146° |
| 2026-05-05 07:19 | 52.45419 | -1.74134 | 329 ft | 0 kts | 146° |
| 2026-05-05 07:20 | 52.45467 | -1.74041 | 325 ft | 0 kts | 146° |
| 2026-05-05 07:22 | 52.45482 | -1.74058 | 325 ft | 4 kts | 146° |
| 2026-05-05 07:22 | 52.45500 | -1.74078 | 325 ft | 4 kts | 153° |
| 2026-05-05 07:23 | 52.45525 | -1.74091 | 325 ft | 4 kts | 182° |
| 2026-05-05 07:23 | 52.45548 | -1.74079 | 325 ft | 4 kts | 229° |
| 2026-05-05 07:23 | 52.45545 | -1.74088 | 325 ft | 4 kts | 236° |
| 2026-05-05 07:23 | 52.45541 | -1.74098 | 325 ft | 14 kts | 234° |
| 2026-05-05 07:26 | 52.45537 | -1.74106 | 326 ft | 6 kts | 232° |
| 2026-05-05 07:26 | 52.45513 | -1.74162 | 326 ft | 0 kts | 235° |
| 2026-05-05 07:27 | 52.45507 | -1.74178 | 346 ft | 5 kts | 237° |
| 2026-05-05 07:27 | 52.45451 | -1.74280 | 327 ft | 13 kts | 210° |
| 2026-05-05 07:27 | 52.45382 | -1.74270 | 327 ft | 10 kts | 153° |
| 2026-05-05 07:27 | 52.45326 | -1.74213 | 326 ft | 9 kts | 146° |
| 2026-05-05 07:28 | 52.45272 | -1.74152 | 326 ft | 10 kts | 145° |
| 2026-05-05 07:28 | 52.45217 | -1.74090 | 327 ft | 10 kts | 147° |
| 2026-05-05 07:28 | 52.45180 | -1.74051 | 325 ft | 0 kts | 147° |
| 2026-05-05 07:29 | 52.45138 | -1.74003 | 325 ft | 19 kts | 145° |
| 2026-05-05 07:29 | 52.45020 | -1.73868 | 326 ft | 21 kts | 146° |
| 2026-05-05 07:30 | 52.44902 | -1.73739 | 327 ft | 20 kts | 146° |
| 2026-05-05 07:30 | 52.44675 | -1.73686 | 328 ft | 22 kts | 151° |
| 2026-05-05 07:30 | 52.44510 | -1.73506 | 327 ft | 25 kts | 147° |
| 2026-05-05 07:31 | 52.44484 | -1.73478 | 326 ft | 0 kts | 144° |
| 2026-05-05 07:31 | 52.44483 | -1.73476 | 326 ft | 4 kts | 144° |
| 2026-05-05 07:31 | 52.44404 | -1.73422 | 327 ft | 14 kts | 187° |
| 2026-05-05 07:32 | 52.44335 | -1.73522 | 329 ft | 16 kts | 245° |
| 2026-05-05 07:32 | 52.44351 | -1.73655 | 329 ft | 9 kts | 326° |
| 2026-05-05 07:32 | 52.44415 | -1.73726 | 327 ft | 33 kts | 326° |
| 2026-05-05 07:32 | 52.44791 | -1.74144 | 328 ft | 103 kts | 326° |
| 2026-05-05 07:33 | 52.45573 | -1.75014 | 368 ft | 166 kts | 326° |
| 2026-05-05 07:33 | 52.46578 | -1.76182 | 1070 ft | 185 kts | 326° |
| 2026-05-05 07:33 | 52.47665 | -1.77452 | 1967 ft | 206 kts | 327° |
| 2026-05-05 07:33 | 52.48951 | -1.78841 | 2694 ft | 229 kts | 332° |
| 2026-05-05 07:34 | 52.50421 | -1.79726 | 4038 ft | 223 kts | 352° |
| 2026-05-05 07:34 | 52.51942 | -1.79489 | 5193 ft | 223 kts | 20° |
| 2026-05-05 07:34 | 52.53221 | -1.77997 | 6385 ft | 234 kts | 48° |
| 2026-05-05 07:34 | 52.53899 | -1.75528 | 7519 ft | 245 kts | 80° |
| 2026-05-05 07:35 | 52.53790 | -1.72699 | 8744 ft | 252 kts | 99° |
| 2026-05-05 07:35 | 52.53406 | -1.69881 | 9987 ft | 256 kts | 103° |
| 2026-05-05 07:35 | 52.52774 | -1.67132 | 11038 ft | 261 kts | 122° |
| 2026-05-05 07:35 | 52.51587 | -1.64755 | 11729 ft | 282 kts | 135° |
| 2026-05-05 07:36 | 52.50128 | -1.62419 | 12318 ft | 301 kts | 137° |
| 2026-05-05 07:36 | 52.48595 | -1.60021 | 13245 ft | 307 kts | 137° |
| 2026-05-05 07:36 | 52.47041 | -1.57566 | 14127 ft | 312 kts | 138° |
| 2026-05-05 07:36 | 52.45330 | -1.55342 | 14919 ft | 318 kts | 148° |
| 2026-05-05 07:37 | 52.43427 | -1.53392 | 15304 ft | 337 kts | 151° |
| 2026-05-05 07:37 | 52.41355 | -1.51379 | 15650 ft | 355 kts | 152° |
| 2026-05-05 07:37 | 52.39178 | -1.49265 | 15983 ft | 373 kts | 151° |
| 2026-05-05 07:37 | 52.36887 | -1.47091 | 16329 ft | 386 kts | 153° |
| 2026-05-05 07:38 | 52.34419 | -1.45283 | 16930 ft | 392 kts | 160° |
| 2026-05-05 07:38 | 52.31853 | -1.43738 | 17659 ft | 394 kts | 162° |
| 2026-05-05 07:38 | 52.29241 | -1.42320 | 18383 ft | 397 kts | 163° |
| 2026-05-05 07:38 | 52.26603 | -1.40950 | 18990 ft | 400 kts | 163° |
| 2026-05-05 07:39 | 52.23934 | -1.39572 | 19597 ft | 403 kts | 163° |
| 2026-05-05 07:39 | 52.21253 | -1.38177 | 20212 ft | 405 kts | 163° |
| 2026-05-05 07:39 | 52.18568 | -1.36761 | 20802 ft | 408 kts | 162° |
| 2026-05-05 07:39 | 52.15918 | -1.35015 | 21320 ft | 413 kts | 154° |
| 2026-05-05 07:40 | 52.13512 | -1.32422 | 21878 ft | 418 kts | 141° |
| 2026-05-05 07:40 | 52.11572 | -1.28871 | 22407 ft | 425 kts | 125° |
| 2026-05-05 07:40 | 52.10136 | -1.24644 | 22947 ft | 429 kts | 117° |
| 2026-05-05 07:40 | 52.08944 | -1.20180 | 23438 ft | 433 kts | 113° |
| 2026-05-05 07:41 | 52.07874 | -1.15577 | 23859 ft | 437 kts | 112° |
| 2026-05-05 07:41 | 52.06843 | -1.10908 | 24249 ft | 440 kts | 111° |
| 2026-05-05 07:41 | 52.05805 | -1.06216 | 24635 ft | 443 kts | 112° |
| 2026-05-05 07:41 | 52.04738 | -1.01502 | 25013 ft | 445 kts | 112° |
| 2026-05-05 07:42 | 52.03643 | -0.96781 | 25396 ft | 447 kts | 113° |
| 2026-05-05 07:42 | 52.02526 | -0.92056 | 25765 ft | 450 kts | 114° |
| 2026-05-05 07:42 | 52.01387 | -0.87306 | 26098 ft | 453 kts | 114° |
| 2026-05-05 07:42 | 52.00234 | -0.82532 | 26434 ft | 455 kts | 114° |
| 2026-05-05 07:43 | 51.99073 | -0.77744 | 26757 ft | 458 kts | 114° |
| 2026-05-05 07:43 | 51.97903 | -0.72924 | 27074 ft | 460 kts | 114° |
| 2026-05-05 07:43 | 51.96728 | -0.68091 | 27380 ft | 462 kts | 114° |
| 2026-05-05 07:43 | 51.95544 | -0.63227 | 27682 ft | 465 kts | 114° |
| 2026-05-05 07:44 | 51.94353 | -0.58346 | 27977 ft | 467 kts | 114° |
| 2026-05-05 07:44 | 51.93154 | -0.53437 | 28284 ft | 469 kts | 115° |
| 2026-05-05 07:44 | 51.91953 | -0.48527 | 28698 ft | 468 kts | 115° |
| 2026-05-05 07:44 | 51.90755 | -0.43636 | 29110 ft | 467 kts | 115° |
| 2026-05-05 07:45 | 51.89555 | -0.38751 | 29555 ft | 467 kts | 115° |
| 2026-05-05 07:45 | 51.88354 | -0.33874 | 29980 ft | 466 kts | 115° |
| 2026-05-05 07:45 | 51.87155 | -0.29015 | 30356 ft | 465 kts | 115° |
| 2026-05-05 07:45 | 51.85956 | -0.24167 | 30782 ft | 463 kts | 115° |
| 2026-05-05 07:46 | 51.84762 | -0.19347 | 31228 ft | 460 kts | 115° |
| 2026-05-05 07:46 | 51.83574 | -0.14566 | 31667 ft | 458 kts | 114° |
| 2026-05-05 07:46 | 51.82388 | -0.09803 | 32111 ft | 455 kts | 114° |
| 2026-05-05 07:46 | 51.81207 | -0.05074 | 32543 ft | 453 kts | 114° |
| 2026-05-05 07:47 | 51.80027 | -0.00359 | 32972 ft | 451 kts | 114° |
| 2026-05-05 07:47 | 51.78845 | 0.04352 | 33227 ft | 454 kts | 114° |
| 2026-05-05 07:47 | 51.77659 | 0.09068 | 33569 ft | 454 kts | 114° |
| 2026-05-05 07:47 | 51.76471 | 0.13785 | 34006 ft | 452 kts | 114° |
| 2026-05-05 07:48 | 51.75303 | 0.18414 | 34344 ft | 451 kts | 114° |
| 2026-05-05 07:48 | 51.74103 | 0.23157 | 34626 ft | 451 kts | 114° |
| 2026-05-05 07:48 | 51.72917 | 0.27835 | 34897 ft | 451 kts | 114° |
| 2026-05-05 07:48 | 51.71740 | 0.32468 | 35176 ft | 452 kts | 114° |
| 2026-05-05 07:49 | 51.70532 | 0.37218 | 35450 ft | 452 kts | 114° |
| 2026-05-05 07:49 | 51.69350 | 0.41851 | 35724 ft | 453 kts | 114° |
| 2026-05-05 07:49 | 51.68153 | 0.46536 | 35983 ft | 453 kts | 114° |
| 2026-05-05 07:49 | 51.66947 | 0.51246 | 36198 ft | 455 kts | 114° |
| 2026-05-05 07:50 | 51.65738 | 0.55959 | 36419 ft | 457 kts | 114° |
| 2026-05-05 07:50 | 51.64522 | 0.60687 | 36699 ft | 457 kts | 114° |
| 2026-05-05 07:50 | 51.63307 | 0.65406 | 36951 ft | 457 kts | 114° |
| 2026-05-05 07:50 | 51.62090 | 0.70118 | 36985 ft | 453 kts | 114° |
| 2026-05-05 07:51 | 51.59692 | 0.79383 | 36992 ft | 446 kts | 114° |
| 2026-05-05 07:51 | 51.57306 | 0.88559 | 36991 ft | 445 kts | 114° |
| 2026-05-05 07:52 | 51.54908 | 0.97737 | 36975 ft | 446 kts | 114° |
| 2026-05-05 07:52 | 51.52494 | 1.06945 | 36981 ft | 448 kts | 114° |
| 2026-05-05 07:53 | 51.50069 | 1.16155 | 36974 ft | 448 kts | 114° |
| 2026-05-05 07:53 | 51.47638 | 1.25357 | 36975 ft | 448 kts | 115° |
| 2026-05-05 07:54 | 51.45200 | 1.34545 | 36978 ft | 448 kts | 115° |
| 2026-05-05 07:54 | 51.42754 | 1.43726 | 36969 ft | 448 kts | 115° |
| 2026-05-05 07:55 | 51.40297 | 1.52912 | 36973 ft | 449 kts | 115° |
| 2026-05-05 07:55 | 51.37824 | 1.62118 | 36971 ft | 450 kts | 115° |
| 2026-05-05 07:56 | 51.35345 | 1.71312 | 36967 ft | 450 kts | 115° |
| 2026-05-05 07:56 | 51.32861 | 1.80489 | 36964 ft | 450 kts | 115° |
| 2026-05-05 07:57 | 51.30369 | 1.89658 | 36962 ft | 449 kts | 116° |
| 2026-05-05 07:57 | 51.27873 | 1.98809 | 36969 ft | 449 kts | 116° |
| 2026-05-05 07:58 | 51.25375 | 2.07929 | 36968 ft | 448 kts | 116° |
| 2026-05-05 07:58 | 51.22868 | 2.17042 | 36945 ft | 448 kts | 116° |
| 2026-05-05 07:59 | 51.20356 | 2.26140 | 36961 ft | 448 kts | 116° |
| 2026-05-05 07:59 | 51.17837 | 2.35231 | 36946 ft | 448 kts | 117° |
| 2026-05-05 08:00 | 51.15312 | 2.44307 | 36950 ft | 447 kts | 117° |
| 2026-05-05 08:00 | 51.12786 | 2.53352 | 36944 ft | 447 kts | 117° |
| 2026-05-05 08:01 | 51.10257 | 2.62381 | 36939 ft | 447 kts | 116° |
| 2026-05-05 08:01 | 51.08270 | 2.71785 | 36934 ft | 450 kts | 110° |
| 2026-05-05 08:02 | 51.06526 | 2.81269 | 36938 ft | 450 kts | 109° |
| 2026-05-05 08:02 | 51.04805 | 2.90837 | 36937 ft | 451 kts | 109° |
| 2026-05-05 08:03 | 51.03069 | 3.00409 | 36937 ft | 451 kts | 109° |
| 2026-05-05 08:03 | 51.01317 | 3.09961 | 36936 ft | 451 kts | 109° |
| 2026-05-05 08:04 | 50.99553 | 3.19504 | 36937 ft | 451 kts | 109° |
| 2026-05-05 08:04 | 50.97779 | 3.29047 | 36937 ft | 451 kts | 110° |
| 2026-05-05 08:05 | 50.95999 | 3.38576 | 36933 ft | 451 kts | 110° |
| 2026-05-05 08:05 | 50.94211 | 3.48102 | 36931 ft | 450 kts | 110° |
| 2026-05-05 08:06 | 50.92418 | 3.57608 | 36935 ft | 450 kts | 110° |
| 2026-05-05 08:06 | 50.90612 | 3.67117 | 36934 ft | 450 kts | 110° |
| 2026-05-05 08:07 | 50.88785 | 3.76606 | 36922 ft | 450 kts | 110° |
| 2026-05-05 08:07 | 50.86946 | 3.86095 | 36927 ft | 451 kts | 111° |
| 2026-05-05 08:08 | 50.85097 | 3.95593 | 36924 ft | 455 kts | 111° |
| 2026-05-05 08:08 | 50.83204 | 4.05260 | 36955 ft | 464 kts | 111° |
| 2026-05-05 08:09 | 50.82248 | 4.10134 | 36812 ft | 463 kts | 111° |
| 2026-05-05 08:09 | 50.81295 | 4.14986 | 36398 ft | 461 kts | 111° |
| 2026-05-05 08:09 | 50.80348 | 4.19805 | 35887 ft | 455 kts | 111° |
| 2026-05-05 08:09 | 50.79421 | 4.24521 | 35564 ft | 444 kts | 111° |
| 2026-05-05 08:10 | 50.78508 | 4.29150 | 34939 ft | 440 kts | 112° |
| 2026-05-05 08:10 | 50.77583 | 4.33798 | 33933 ft | 447 kts | 112° |
| 2026-05-05 08:10 | 50.76640 | 4.38500 | 32836 ft | 451 kts | 112° |
| 2026-05-05 08:10 | 50.75693 | 4.43219 | 31929 ft | 451 kts | 112° |
| 2026-05-05 08:11 | 50.75067 | 4.46347 | 31397 ft | 449 kts | 111° |
| 2026-05-05 08:11 | 50.74130 | 4.51023 | 30665 ft | 445 kts | 111° |
| 2026-05-05 08:11 | 50.72900 | 4.57154 | 29693 ft | 440 kts | 111° |
| 2026-05-05 08:11 | 50.72280 | 4.60257 | 29185 ft | 437 kts | 110° |
| 2026-05-05 08:12 | 50.71394 | 4.64809 | 28475 ft | 431 kts | 110° |
| 2026-05-05 08:12 | 50.70245 | 4.70751 | 27527 ft | 425 kts | 110° |
| 2026-05-05 08:12 | 50.69385 | 4.75182 | 26870 ft | 420 kts | 110° |
| 2026-05-05 08:12 | 50.68809 | 4.78148 | 26443 ft | 417 kts | 109° |
| 2026-05-05 08:13 | 50.67965 | 4.82482 | 25832 ft | 412 kts | 109° |
| 2026-05-05 08:13 | 50.67127 | 4.86769 | 25232 ft | 407 kts | 109° |
| 2026-05-05 08:13 | 50.66049 | 4.90846 | 24636 ft | 400 kts | 121° |
| 2026-05-05 08:13 | 50.64381 | 4.94289 | 24070 ft | 393 kts | 134° |
| 2026-05-05 08:14 | 50.62473 | 4.97330 | 23510 ft | 389 kts | 136° |
| 2026-05-05 08:14 | 50.60537 | 5.00299 | 22783 ft | 387 kts | 136° |
| 2026-05-05 08:14 | 50.58643 | 5.03202 | 22211 ft | 382 kts | 136° |
| 2026-05-05 08:14 | 50.56770 | 5.06081 | 21868 ft | 371 kts | 136° |
| 2026-05-05 08:15 | 50.54949 | 5.08886 | 21415 ft | 363 kts | 136° |
| 2026-05-05 08:15 | 50.53146 | 5.11662 | 20837 ft | 361 kts | 136° |
| 2026-05-05 08:15 | 50.51365 | 5.14403 | 20290 ft | 357 kts | 136° |
| 2026-05-05 08:15 | 50.49597 | 5.17124 | 19738 ft | 354 kts | 136° |
| 2026-05-05 08:16 | 50.47843 | 5.19823 | 19238 ft | 351 kts | 136° |
| 2026-05-05 08:16 | 50.46100 | 5.22499 | 18689 ft | 350 kts | 136° |
| 2026-05-05 08:16 | 50.44368 | 5.25159 | 18226 ft | 346 kts | 136° |
| 2026-05-05 08:16 | 50.42649 | 5.27799 | 17646 ft | 345 kts | 135° |
| 2026-05-05 08:17 | 50.40940 | 5.30419 | 17010 ft | 343 kts | 135° |
| 2026-05-05 08:17 | 50.39232 | 5.33032 | 16426 ft | 341 kts | 135° |
| 2026-05-05 08:17 | 50.37548 | 5.35604 | 15927 ft | 336 kts | 135° |
| 2026-05-05 08:17 | 50.35884 | 5.38145 | 15327 ft | 334 kts | 135° |
| 2026-05-05 08:18 | 50.34219 | 5.40685 | 14739 ft | 333 kts | 135° |
| 2026-05-05 08:18 | 50.32568 | 5.43201 | 14231 ft | 329 kts | 134° |
| 2026-05-05 08:18 | 50.30935 | 5.45687 | 13671 ft | 327 kts | 134° |
| 2026-05-05 08:18 | 50.29301 | 5.48173 | 13019 ft | 327 kts | 135° |
| 2026-05-05 08:19 | 50.27679 | 5.50643 | 12415 ft | 324 kts | 135° |
| 2026-05-05 08:19 | 50.26070 | 5.53085 | 11844 ft | 321 kts | 136° |
| 2026-05-05 08:19 | 50.24474 | 5.55504 | 11285 ft | 318 kts | 136° |
| 2026-05-05 08:19 | 50.22892 | 5.57900 | 10965 ft | 316 kts | 136° |
| 2026-05-05 08:20 | 50.21316 | 5.60286 | 10779 ft | 314 kts | 136° |
| 2026-05-05 08:20 | 50.19767 | 5.62627 | 10554 ft | 307 kts | 136° |
| 2026-05-05 08:20 | 50.18239 | 5.64936 | 10304 ft | 305 kts | 136° |
| 2026-05-05 08:20 | 50.16713 | 5.67239 | 10057 ft | 305 kts | 136° |
| 2026-05-05 08:21 | 50.15190 | 5.69535 | 9836 ft | 304 kts | 136° |
| 2026-05-05 08:21 | 50.13676 | 5.71817 | 9607 ft | 303 kts | 136° |
| 2026-05-05 08:21 | 50.12167 | 5.74088 | 9349 ft | 297 kts | 136° |
| 2026-05-05 08:21 | 50.10711 | 5.76278 | 9084 ft | 287 kts | 136° |
| 2026-05-05 08:22 | 50.09284 | 5.78423 | 8815 ft | 284 kts | 136° |
| 2026-05-05 08:22 | 50.07865 | 5.80554 | 8548 ft | 283 kts | 136° |
| 2026-05-05 08:22 | 50.06451 | 5.82676 | 8304 ft | 282 kts | 136° |
| 2026-05-05 08:22 | 50.05043 | 5.84789 | 8146 ft | 281 kts | 136° |
| 2026-05-05 08:23 | 50.03638 | 5.86894 | 7911 ft | 280 kts | 136° |
| 2026-05-05 08:23 | 50.02243 | 5.88980 | 7465 ft | 278 kts | 136° |
| 2026-05-05 08:23 | 50.00849 | 5.91062 | 7016 ft | 276 kts | 136° |
| 2026-05-05 08:23 | 49.99473 | 5.93117 | 6575 ft | 273 kts | 136° |
| 2026-05-05 08:24 | 49.98108 | 5.95158 | 6167 ft | 270 kts | 137° |
| 2026-05-05 08:24 | 49.96763 | 5.97166 | 5730 ft | 267 kts | 136° |
| 2026-05-05 08:24 | 49.95459 | 5.99110 | 5496 ft | 258 kts | 137° |
| 2026-05-05 08:24 | 49.94195 | 6.00994 | 5335 ft | 246 kts | 136° |
| 2026-05-05 08:25 | 49.92985 | 6.02797 | 5138 ft | 238 kts | 137° |
| 2026-05-05 08:25 | 49.91802 | 6.04554 | 4942 ft | 231 kts | 136° |
| 2026-05-05 08:25 | 49.90659 | 6.06246 | 4787 ft | 224 kts | 137° |
| 2026-05-05 08:25 | 49.89545 | 6.07894 | 4662 ft | 218 kts | 137° |
| 2026-05-05 08:26 | 49.88474 | 6.09491 | 4574 ft | 210 kts | 137° |
| 2026-05-05 08:26 | 49.87438 | 6.11030 | 4467 ft | 203 kts | 137° |
| 2026-05-05 08:26 | 49.86467 | 6.12570 | 4396 ft | 197 kts | 130° |
| 2026-05-05 08:26 | 49.85756 | 6.14347 | 4365 ft | 192 kts | 117° |
| 2026-05-05 08:27 | 49.85200 | 6.16217 | 4222 ft | 191 kts | 115° |
| 2026-05-05 08:27 | 49.84631 | 6.18229 | 4268 ft | 227 kts | 114° |
| 2026-05-05 08:27 | 49.83952 | 6.20630 | 4302 ft | 255 kts | 114° |
| 2026-05-05 08:27 | 49.83231 | 6.23186 | 4391 ft | 262 kts | 114° |
| 2026-05-05 08:28 | 49.82498 | 6.25774 | 4415 ft | 263 kts | 115° |
| 2026-05-05 08:28 | 49.81765 | 6.28359 | 4416 ft | 262 kts | 114° |
| 2026-05-05 08:28 | 49.81032 | 6.30947 | 4418 ft | 262 kts | 114° |
| 2026-05-05 08:28 | 49.80316 | 6.33480 | 4408 ft | 249 kts | 114° |
| 2026-05-05 08:29 | 49.79637 | 6.35877 | 4353 ft | 238 kts | 115° |
| 2026-05-05 08:29 | 49.78878 | 6.38171 | 3876 ft | 242 kts | 127° |
| 2026-05-05 08:29 | 49.77641 | 6.39860 | 3657 ft | 234 kts | 148° |
| 2026-05-05 08:30 | 49.74930 | 6.42268 | 3372 ft | 214 kts | 152° |
| 2026-05-05 08:30 | 49.73669 | 6.43358 | 3215 ft | 203 kts | 152° |
| 2026-05-05 08:30 | 49.72402 | 6.44192 | 3095 ft | 195 kts | 172° |
| 2026-05-05 08:30 | 49.71140 | 6.43716 | 2977 ft | 190 kts | 219° |
| 2026-05-05 08:31 | 49.70338 | 6.42129 | 3018 ft | 184 kts | 237° |
| 2026-05-05 08:31 | 49.69777 | 6.40453 | 2991 ft | 170 kts | 240° |
| 2026-05-05 08:31 | 49.69221 | 6.38902 | 3000 ft | 160 kts | 238° |
| 2026-05-05 08:31 | 49.68692 | 6.37499 | 2987 ft | 144 kts | 237° |
| 2026-05-05 08:32 | 49.68206 | 6.36186 | 2985 ft | 140 kts | 237° |
| 2026-05-05 08:32 | 49.67731 | 6.34886 | 2934 ft | 137 kts | 238° |
| 2026-05-05 08:32 | 49.67273 | 6.33629 | 2774 ft | 132 kts | 237° |
| 2026-05-05 08:32 | 49.66822 | 6.32415 | 2575 ft | 130 kts | 237° |
| 2026-05-05 08:33 | 49.66372 | 6.31202 | 2398 ft | 130 kts | 237° |
| 2026-05-05 08:33 | 49.65917 | 6.29978 | 2248 ft | 133 kts | 237° |
| 2026-05-05 08:33 | 49.65447 | 6.28735 | 2046 ft | 136 kts | 238° |
| 2026-05-05 08:33 | 49.64979 | 6.27459 | 1854 ft | 137 kts | 238° |
| 2026-05-05 08:34 | 49.64527 | 6.26165 | 1706 ft | 136 kts | 238° |
| 2026-05-05 08:34 | 49.64034 | 6.24906 | 1451 ft | 138 kts | 236° |
| 2026-05-05 08:34 | 49.63560 | 6.23630 | 1273 ft | 137 kts | 237° |
| 2026-05-05 08:34 | 49.63111 | 6.22414 | 1219 ft | 116 kts | 241° |
| 2026-05-05 08:35 | 49.62811 | 6.21607 | 1227 ft | 67 kts | 240° |
| 2026-05-05 08:35 | 49.62672 | 6.21185 | 1251 ft | 27 kts | 251° |
| 2026-05-05 08:35 | 49.62649 | 6.21021 | 1251 ft | 0 kts | 263° |
| 2026-05-05 08:36 | 49.62646 | 6.20965 | 1254 ft | 14 kts | 268° |
| 2026-05-05 08:36 | 49.62656 | 6.20799 | 1251 ft | 15 kts | 292° |
| 2026-05-05 08:36 | 49.62669 | 6.20764 | 1253 ft | 0 kts | 302° |
| 2026-05-05 08:36 | 49.62698 | 6.20728 | 1248 ft | 6 kts | 341° |
| 2026-05-05 08:37 | 49.62738 | 6.20728 | 1250 ft | 5 kts | 6° |
| 2026-05-05 08:37 | 49.62771 | 6.20742 | 1245 ft | 5 kts | 23° |
| 2026-05-05 08:37 | 49.62787 | 6.20754 | 1259 ft | 0 kts | 26° |
| 2026-05-05 08:38 | 49.62806 | 6.20787 | 1251 ft | 7 kts | 50° |
| 2026-05-05 08:38 | 49.62833 | 6.20856 | 1251 ft | 10 kts | 65° |
| 2026-05-05 08:38 | 49.62889 | 6.21044 | 1247 ft | 22 kts | 65° |
| 2026-05-05 08:38 | 49.62954 | 6.21254 | 1246 ft | 22 kts | 64° |
| 2026-05-05 08:39 | 49.63024 | 6.21475 | 1233 ft | 24 kts | 64° |
| 2026-05-05 08:39 | 49.63097 | 6.21706 | 1232 ft | 24 kts | 65° |
| 2026-05-05 08:39 | 49.63167 | 6.21931 | 1234 ft | 20 kts | 63° |
| 2026-05-05 08:39 | 49.63225 | 6.22121 | 1247 ft | 19 kts | 65° |
| 2026-05-05 08:40 | 49.63279 | 6.22298 | 1230 ft | 19 kts | 64° |
| 2026-05-05 08:40 | 49.63343 | 6.22495 | 1223 ft | 22 kts | 62° |
| 2026-05-05 08:40 | 49.63366 | 6.22561 | 1222 ft | 0 kts | 61° |
| 2026-05-05 08:41 | 49.63367 | 6.22562 | 1222 ft | 1 kts | 59° |
| 2026-05-05 08:41 | 49.63394 | 6.22631 | 1221 ft | 11 kts | 59° |
| 2026-05-05 08:41 | 49.63428 | 6.22711 | 1221 ft | 11 kts | 54° |
| 2026-05-05 08:41 | 49.63479 | 6.22805 | 1221 ft | 12 kts | 46° |
| 2026-05-05 08:42 | 49.63541 | 6.22827 | 1220 ft | 9 kts | 346° |
| 2026-05-05 08:42 | 49.63576 | 6.22784 | 1220 ft | 3 kts | 279° |
| 2026-05-05 08:42 | 49.63563 | 6.22741 | 1220 ft | 1 kts | 241° |
| 2026-05-05 08:42 | 49.63562 | 6.22740 | 1220 ft | 0 kts | 240° |
| 2026-05-05 08:43 | 49.63561 | 6.22736 | 1220 ft | 4 kts | 240° |
| 2026-05-05 08:43 | 49.63546 | 6.22696 | 1221 ft | 0 kts | 240° |
| 2026-05-05 08:44 | 49.63544 | 6.22690 | 1221 ft | 1 kts | 242° |
| 2026-05-05 08:44 | 49.63542 | 6.22684 | 1221 ft | 0 kts | 243° |